Time;durP1;ratioP1;P1;durP2;ratioP2;P2;SDS_P1;SDS_P2;PMS_P1;PMS_P2;Temp;Humidity;BMP_temperature;BMP_pressure;BME280_temperature;BME280_humidity;BME280_pressure;Samples;Min_cycle;Max_cycle;Signal;HPM_P1;HPM_P2
2022/02/01 00:02:34;;;;;;;20.50;13.73;;;;;;;;;;6078007;28;20575;-61
2022/02/01 00:06:04;;;;;;;19.33;11.87;;;;;;;;;;6085269;29;20236;-62
2022/02/01 00:09:32;;;;;;;17.03;12.97;;;;;;;;;;6078714;29;20240;-61
2022/02/01 00:13:03;;;;;;;21.60;12.93;;;;;;;;;;6073845;29;20237;-63
2022/02/01 00:16:48;;;;;;;22.33;12.03;;;;;;;;;;6081048;29;20236;-62
2022/02/01 00:20:20;;;;;;;20.30;11.43;;;;;;;;;;6078893;29;20328;-62
2022/02/01 00:35:01;;;;;;;15.57;10.23;;;;;;;;;;6045095;29;21500;-60
2022/02/01 00:38:26;;;;;;;17.87;12.03;;;;;;;;;;6084997;29;20232;-61
2022/02/01 00:41:53;;;;;;;16.73;10.97;;;;;;;;;;6079164;29;20232;-62
2022/02/01 00:45:13;;;;;;;18.30;12.40;;;;;;;;;;6076285;29;20233;-62
2022/02/01 00:48:34;;;;;;;14.00;10.97;;;;;;;;;;6082356;29;20290;-61
2022/02/01 00:51:54;;;;;;;13.37;10.67;;;;;;;;;;6085170;29;20229;-62
2022/02/01 00:55:15;;;;;;;22.53;13.33;;;;;;;;;;6080910;29;20232;-61
2022/02/01 00:58:38;;;;;;;18.07;11.63;;;;;;;;;;6079161;29;20232;-60
2022/02/01 01:01:59;;;;;;;14.33;10.97;;;;;;;;;;6083412;29;20244;-62
2022/02/01 01:05:20;;;;;;;13.80;10.23;;;;;;;;;;6083030;29;20228;-62
2022/02/01 01:08:41;;;;;;;10.87;9.47;;;;;;;;;;6084064;28;20228;-62
2022/02/01 01:12:01;;;;;;;10.77;8.00;;;;;;;;;;6080558;29;20626;-62
2022/02/01 01:15:26;;;;;;;10.53;6.67;;;;;;;;;;6082662;29;20221;-61
2022/02/01 01:19:11;;;;;;;10.47;8.57;;;;;;;;;;6082466;29;20233;-62
2022/02/01 01:44:40;;;;;;;6.63;3.43;;;;;;;;;;6085404;29;21028;-62
2022/02/01 01:55:18;;;;;;;15.10;3.77;;;;;;;;;;6086641;28;20229;-63
2022/02/01 01:58:38;;;;;;;19.03;4.60;;;;;;;;;;6087237;29;20590;-62
2022/02/01 02:01:58;;;;;;;9.23;3.87;;;;;;;;;;6082245;29;20236;-63
2022/02/01 02:05:19;;;;;;;8.97;3.47;;;;;;;;;;6082330;29;20232;-62
2022/02/01 02:08:43;;;;;;;10.27;2.70;;;;;;;;;;6082465;29;20248;-62
2022/02/01 02:12:12;;;;;;;9.33;3.00;;;;;;;;;;6072458;29;20240;-61
2022/02/01 02:15:38;;;;;;;5.37;2.57;;;;;;;;;;6081402;29;20232;-61
2022/02/01 02:18:59;;;;;;;11.33;3.80;;;;;;;;;;6085303;29;20639;-63
2022/02/01 02:22:22;;;;;;;9.20;3.10;;;;;;;;;;6087831;29;20852;-63
2022/02/01 02:25:43;;;;;;;7.57;2.70;;;;;;;;;;6085440;29;20241;-62
2022/02/01 02:29:04;;;;;;;11.87;3.23;;;;;;;;;;6082090;28;20248;-59
2022/02/01 02:32:25;;;;;;;15.97;3.63;;;;;;;;;;6078684;29;20746;-61
2022/02/01 02:35:52;;;;;;;10.30;3.00;;;;;;;;;;6081440;29;20240;-62
2022/02/01 02:39:24;;;;;;;20.00;4.27;;;;;;;;;;6083317;29;20512;-62
2022/02/01 02:46:23;;;;;;;9.33;3.27;;;;;;;;;;6080857;29;20236;-62
2022/02/01 02:49:44;;;;;;;7.63;2.63;;;;;;;;;;6086551;28;20816;-61
2022/02/01 02:53:04;;;;;;;8.97;3.50;;;;;;;;;;6089743;29;20519;-61
2022/02/01 02:56:26;;;;;;;6.30;3.07;;;;;;;;;;6085993;29;20315;-62
2022/02/01 02:59:47;;;;;;;6.93;2.40;;;;;;;;;;6081122;29;20606;-62
2022/02/01 03:03:07;;;;;;;18.80;5.30;;;;;;;;;;6081836;29;20681;-61
2022/02/01 03:06:28;;;;;;;11.20;3.00;;;;;;;;;;6082213;29;20240;-63
2022/02/01 03:09:49;;;;;;;18.37;5.57;;;;;;;;;;6081853;29;20237;-62
2022/02/01 03:13:14;;;;;;;15.33;4.33;;;;;;;;;;6080173;29;20263;-60
2022/02/01 03:16:51;;;;;;;14.03;3.40;;;;;;;;;;6083616;29;20233;-61
2022/02/01 03:20:11;;;;;;;20.30;5.43;;;;;;;;;;6087646;29;20509;-61
2022/02/01 03:23:32;;;;;;;9.90;3.33;;;;;;;;;;6089633;29;20237;-62
2022/02/01 03:26:52;;;;;;;11.43;4.07;;;;;;;;;;6090734;28;20236;-62
2022/02/01 03:30:15;;;;;;;12.63;3.17;;;;;;;;;;6087543;29;20957;-63
2022/02/01 03:33:35;;;;;;;8.57;3.67;;;;;;;;;;6085680;28;20240;-62
2022/02/01 03:36:56;;;;;;;12.83;2.63;;;;;;;;;;6085946;29;20260;-62
2022/02/01 03:40:19;;;;;;;11.80;3.70;;;;;;;;;;6084117;29;20253;-62
2022/02/01 03:43:40;;;;;;;15.53;3.20;;;;;;;;;;6084558;29;20264;-61
2022/02/01 03:47:02;;;;;;;14.80;4.50;;;;;;;;;;6086792;29;20328;-62
2022/02/01 03:50:23;;;;;;;7.90;2.90;;;;;;;;;;6088507;29;20236;-61
2022/02/01 03:53:43;;;;;;;15.73;4.20;;;;;;;;;;6092126;29;20232;-61
2022/02/01 03:57:05;;;;;;;12.50;3.60;;;;;;;;;;6080703;29;20323;-61
2022/02/01 04:00:25;;;;;;;7.50;3.50;;;;;;;;;;6085987;29;20241;-63
2022/02/01 04:03:47;;;;;;;11.73;3.33;;;;;;;;;;6084937;29;20412;-60
2022/02/01 04:07:09;;;;;;;11.47;3.90;;;;;;;;;;6083320;29;20517;-61
2022/02/01 04:10:29;;;;;;;13.60;4.10;;;;;;;;;;6087507;28;20580;-62
2022/02/01 04:13:49;;;;;;;17.37;4.57;;;;;;;;;;6086471;29;20233;-61
2022/02/01 04:17:11;;;;;;;12.33;4.33;;;;;;;;;;6077796;28;20232;-60
2022/02/01 04:20:33;;;;;;;15.30;3.97;;;;;;;;;;6078524;28;20689;-62
2022/02/01 04:23:53;;;;;;;14.10;2.73;;;;;;;;;;6082085;29;20520;-62
2022/02/01 04:27:26;;;;;;;13.43;3.53;;;;;;;;;;6083864;29;20240;-62
2022/02/01 04:30:47;;;;;;;13.60;3.17;;;;;;;;;;6081737;29;20228;-61
2022/02/01 04:34:07;;;;;;;16.37;3.67;;;;;;;;;;6080473;28;20236;-62
2022/02/01 04:37:30;;;;;;;16.40;3.73;;;;;;;;;;6078079;29;20237;-62
2022/02/01 04:40:53;;;;;;;13.40;3.20;;;;;;;;;;6076254;29;20236;-62
2022/02/01 04:44:13;;;;;;;15.97;3.73;;;;;;;;;;6076257;29;20240;-62
2022/02/01 04:47:35;;;;;;;14.13;3.27;;;;;;;;;;6081674;28;20233;-61
2022/02/01 04:50:55;;;;;;;15.17;2.80;;;;;;;;;;6083723;29;20233;-62
2022/02/01 04:54:18;;;;;;;14.00;3.30;;;;;;;;;;6085468;29;20260;-62
2022/02/01 04:57:49;;;;;;;14.70;3.90;;;;;;;;;;6079350;29;20228;-62
2022/02/01 05:01:09;;;;;;;14.97;4.40;;;;;;;;;;6084526;29;20445;-63
2022/02/01 05:04:30;;;;;;;15.43;3.13;;;;;;;;;;6078769;29;20244;-62
2022/02/01 05:07:50;;;;;;;14.03;3.90;;;;;;;;;;6089363;28;20232;-61
2022/02/01 05:11:12;;;;;;;10.00;4.07;;;;;;;;;;6091488;29;20322;-62
2022/02/01 05:14:33;;;;;;;5.80;2.20;;;;;;;;;;6088082;28;20248;-62
2022/02/01 05:17:55;;;;;;;16.40;3.13;;;;;;;;;;6090623;29;20240;-62
2022/02/01 05:21:21;;;;;;;13.13;4.47;;;;;;;;;;6088136;29;20259;-61
2022/02/01 05:24:43;;;;;;;13.60;4.57;;;;;;;;;;6094153;29;20457;-63
2022/02/01 05:28:05;;;;;;;14.27;3.47;;;;;;;;;;6089386;29;20240;-61
2022/02/01 05:31:25;;;;;;;14.70;4.20;;;;;;;;;;6086840;28;20248;-63
2022/02/01 05:34:46;;;;;;;13.87;4.80;;;;;;;;;;6087845;29;20240;-62
2022/02/01 05:38:07;;;;;;;19.90;4.67;;;;;;;;;;6089596;28;20228;-61
2022/02/01 05:41:28;;;;;;;15.27;4.37;;;;;;;;;;6086988;29;20614;-62
2022/02/01 05:44:50;;;;;;;12.90;3.73;;;;;;;;;;6092014;29;20237;-61
2022/02/01 05:48:10;;;;;;;21.70;4.37;;;;;;;;;;6086487;28;20319;-62
2022/02/01 05:51:31;;;;;;;12.60;4.00;;;;;;;;;;6086135;28;20275;-62
2022/02/01 05:54:51;;;;;;;12.27;3.33;;;;;;;;;;6091397;28;20236;-60
2022/02/01 05:58:13;;;;;;;14.60;3.90;;;;;;;;;;6090790;29;20233;-62
2022/02/01 06:01:35;;;;;;;11.10;4.03;;;;;;;;;;6082372;29;20236;-61
2022/02/01 06:04:55;;;;;;;12.10;4.47;;;;;;;;;;6085357;29;22029;-62
2022/02/01 06:08:16;;;;;;;10.83;4.13;;;;;;;;;;6087784;29;20232;-62
2022/02/01 06:11:36;;;;;;;15.10;5.10;;;;;;;;;;6081343;29;20709;-61
2022/02/01 06:14:57;;;;;;;16.27;4.67;;;;;;;;;;6084470;29;20232;-62
2022/02/01 06:18:19;;;;;;;9.50;3.50;;;;;;;;;;6082429;29;20263;-63
2022/02/01 06:21:39;;;;;;;11.93;4.73;;;;;;;;;;6083873;29;20244;-62
2022/02/01 06:25:00;;;;;;;16.33;3.20;;;;;;;;;;6085686;28;20272;-62
2022/02/01 06:28:22;;;;;;;12.23;3.27;;;;;;;;;;6083805;29;20236;-61
2022/02/01 06:31:42;;;;;;;9.30;2.40;;;;;;;;;;6076154;28;20236;-62
2022/02/01 06:35:05;;;;;;;11.57;3.97;;;;;;;;;;6075435;28;20356;-62
2022/02/01 06:38:25;;;;;;;9.67;3.13;;;;;;;;;;6077052;29;20257;-63
2022/02/01 06:41:45;;;;;;;9.30;2.70;;;;;;;;;;6076838;29;20236;-64
2022/02/01 06:45:07;;;;;;;15.23;4.03;;;;;;;;;;6080882;29;20244;-64
2022/02/01 06:48:27;;;;;;;12.87;3.83;;;;;;;;;;6083091;29;20260;-63
2022/02/01 06:51:49;;;;;;;13.03;2.90;;;;;;;;;;6084352;28;20231;-64
2022/02/01 06:55:12;;;;;;;11.00;3.43;;;;;;;;;;6077831;28;20236;-64
2022/02/01 06:58:33;;;;;;;10.00;3.23;;;;;;;;;;6081402;28;20244;-64
2022/02/01 07:01:53;;;;;;;12.67;3.33;;;;;;;;;;6079644;29;20240;-65
2022/02/01 07:05:14;;;;;;;12.57;2.93;;;;;;;;;;6085754;28;20244;-64
2022/02/01 07:08:36;;;;;;;9.63;3.17;;;;;;;;;;6081868;28;20240;-64
2022/02/01 07:11:57;;;;;;;15.83;5.37;;;;;;;;;;6075139;29;20232;-64
2022/02/01 07:15:18;;;;;;;12.83;4.80;;;;;;;;;;6076859;29;20247;-65
2022/02/01 07:18:38;;;;;;;11.87;2.40;;;;;;;;;;6078727;28;20237;-64
2022/02/01 07:21:59;;;;;;;8.10;3.00;;;;;;;;;;6076229;29;20540;-61
2022/02/01 07:25:28;;;;;;;10.40;3.40;;;;;;;;;;6078330;29;20236;-63
2022/02/01 07:28:48;;;;;;;14.30;5.03;;;;;;;;;;6073234;29;20232;-62
2022/02/01 07:32:09;;;;;;;5.87;2.73;;;;;;;;;;6068562;29;20626;-64
2022/02/01 07:35:30;;;;;;;19.10;3.80;;;;;;;;;;6081334;28;20224;-65
2022/02/01 07:38:51;;;;;;;6.77;3.30;;;;;;;;;;6082278;28;20233;-64
2022/02/01 07:42:13;;;;;;;13.20;3.73;;;;;;;;;;6077625;28;20237;-63
2022/02/01 07:45:35;;;;;;;7.30;3.07;;;;;;;;;;6073261;29;20240;-63
2022/02/01 07:48:56;;;;;;;10.73;2.70;;;;;;;;;;6083793;29;20240;-64
2022/02/01 07:52:16;;;;;;;11.47;3.80;;;;;;;;;;6079769;28;20237;-62
2022/02/01 07:55:37;;;;;;;9.43;2.67;;;;;;;;;;6080144;28;20251;-62
2022/02/01 07:58:59;;;;;;;12.20;3.77;;;;;;;;;;6075712;29;20248;-63
2022/02/01 08:02:20;;;;;;;10.70;3.60;;;;;;;;;;6071461;28;20248;-64
2022/02/01 08:05:41;;;;;;;11.03;2.67;;;;;;;;;;6068718;28;21064;-62
2022/02/01 08:09:10;;;;;;;6.17;2.27;;;;;;;;;;6072251;29;20232;-64
2022/02/01 08:13:37;;;;;;;8.57;2.40;;;;;;;;;;6071728;28;20236;-64
2022/02/01 08:16:37;;;;;;;9.07;2.63;;;;;;;;;;6069269;28;20224;-64
2022/02/01 08:20:02;;;;;;;12.83;3.90;;;;;;;;;;6073154;29;20245;-62
2022/02/01 08:23:23;;;;;;;7.63;2.77;;;;;;;;;;6072539;29;20233;-65
2022/02/01 08:26:43;;;;;;;8.90;3.47;;;;;;;;;;6069571;29;20776;-65
2022/02/01 08:30:04;;;;;;;9.20;2.97;;;;;;;;;;6071184;29;20240;-63
2022/02/01 08:33:26;;;;;;;12.37;3.40;;;;;;;;;;6072097;29;20324;-63
2022/02/01 08:36:46;;;;;;;10.23;3.70;;;;;;;;;;6073011;28;20536;-63
2022/02/01 08:40:08;;;;;;;13.30;4.10;;;;;;;;;;6073274;28;20271;-63
2022/02/01 08:43:31;;;;;;;8.67;3.17;;;;;;;;;;6073543;29;20932;-64
2022/02/01 08:46:51;;;;;;;9.50;4.23;;;;;;;;;;6074275;29;20228;-64
2022/02/01 08:50:13;;;;;;;14.73;4.60;;;;;;;;;;6076557;29;20240;-63
2022/02/01 08:53:45;;;;;;;8.00;3.30;;;;;;;;;;6077613;29;22163;-64
2022/02/01 08:57:22;;;;;;;12.23;5.67;;;;;;;;;;6087118;28;20236;-64
2022/02/01 09:00:43;;;;;;;11.60;3.07;;;;;;;;;;6091617;29;20686;-63
2022/02/01 09:04:04;;;;;;;10.10;3.37;;;;;;;;;;6084565;29;20229;-64
2022/02/01 09:07:25;;;;;;;14.07;5.53;;;;;;;;;;6084146;29;20682;-64
2022/02/01 09:10:46;;;;;;;8.03;3.23;;;;;;;;;;6084206;28;20666;-64
2022/02/01 09:14:07;;;;;;;11.43;4.20;;;;;;;;;;6080181;29;20236;-64
2022/02/01 09:17:27;;;;;;;7.37;3.73;;;;;;;;;;6083348;29;21118;-64
2022/02/01 09:20:49;;;;;;;11.27;3.90;;;;;;;;;;6081408;29;20510;-63
2022/02/01 09:24:11;;;;;;;6.10;3.53;;;;;;;;;;6078630;28;20237;-63
2022/02/01 09:27:31;;;;;;;11.47;3.80;;;;;;;;;;6086142;28;20555;-61
2022/02/01 09:30:51;;;;;;;6.17;4.10;;;;;;;;;;6080157;29;20233;-63
2022/02/01 09:34:12;;;;;;;11.10;4.00;;;;;;;;;;6081729;29;20236;-64
2022/02/01 09:37:33;;;;;;;12.57;4.83;;;;;;;;;;6083256;28;20237;-62
2022/02/01 09:40:54;;;;;;;10.77;5.90;;;;;;;;;;6081946;29;20537;-64
2022/02/01 09:44:15;;;;;;;10.30;5.30;;;;;;;;;;6082857;29;20247;-63
2022/02/01 09:47:37;;;;;;;8.37;5.17;;;;;;;;;;6077878;28;20237;-64
2022/02/01 09:50:57;;;;;;;13.97;7.67;;;;;;;;;;6085821;29;20311;-63
2022/02/01 09:54:18;;;;;;;10.37;6.33;;;;;;;;;;6089353;28;20848;-63
2022/02/01 09:57:43;;;;;;;14.07;7.00;;;;;;;;;;6090998;29;20335;-63
2022/02/01 10:01:14;;;;;;;24.53;7.57;;;;;;;;;;6081326;29;20247;-64
2022/02/01 10:04:35;;;;;;;10.70;6.73;;;;;;;;;;6090026;29;20244;-64
2022/02/01 10:07:56;;;;;;;8.30;6.00;;;;;;;;;;6085823;28;20240;-64
2022/02/01 10:11:16;;;;;;;12.30;5.90;;;;;;;;;;6088688;29;20256;-63
2022/02/01 10:14:41;;;;;;;4.80;4.13;;;;;;;;;;6091267;28;20243;-63
2022/02/01 10:18:02;;;;;;;8.90;5.53;;;;;;;;;;6077009;29;20236;-64
2022/02/01 10:21:23;;;;;;;12.23;6.33;;;;;;;;;;6083037;29;20241;-63
2022/02/01 10:24:44;;;;;;;8.23;4.73;;;;;;;;;;6081861;29;20257;-63
2022/02/01 10:28:04;;;;;;;9.00;5.40;;;;;;;;;;6080800;29;20236;-64
2022/02/01 10:31:31;;;;;;;13.43;6.53;;;;;;;;;;6074407;28;20237;-62
2022/02/01 10:34:52;;;;;;;8.60;5.10;;;;;;;;;;6085436;29;20642;-65
2022/02/01 10:38:13;;;;;;;9.40;5.47;;;;;;;;;;6091454;29;20260;-65
2022/02/01 10:41:34;;;;;;;6.50;4.83;;;;;;;;;;6085781;28;20240;-63
2022/02/01 10:44:55;;;;;;;8.20;5.23;;;;;;;;;;6083597;29;20236;-65
2022/02/01 10:48:18;;;;;;;5.43;4.23;;;;;;;;;;6083083;29;20704;-63
2022/02/01 10:51:38;;;;;;;12.67;6.57;;;;;;;;;;6082631;29;20248;-63
2022/02/01 10:55:00;;;;;;;10.20;6.30;;;;;;;;;;6082130;29;20232;-64
2022/02/01 10:58:20;;;;;;;7.70;4.23;;;;;;;;;;6072930;29;20228;-65
2022/02/01 11:01:41;;;;;;;6.73;4.97;;;;;;;;;;6082623;29;20882;-63
2022/02/01 11:05:04;;;;;;;10.20;5.43;;;;;;;;;;6083165;29;20233;-64
2022/02/01 11:08:27;;;;;;;8.20;5.40;;;;;;;;;;6084210;29;20551;-64
2022/02/01 11:11:51;;;;;;;3.13;2.87;;;;;;;;;;6083218;29;20248;-63
2022/02/01 11:15:19;;;;;;;6.27;4.10;;;;;;;;;;6087678;29;20286;-63
2022/02/01 11:18:39;;;;;;;5.20;3.97;;;;;;;;;;6087869;29;20252;-62
2022/02/01 11:22:01;;;;;;;5.13;4.63;;;;;;;;;;6086624;29;20407;-64
2022/02/01 11:25:25;;;;;;;7.23;3.80;;;;;;;;;;6079013;29;20244;-62
2022/02/01 11:28:59;;;;;;;7.20;3.87;;;;;;;;;;6081265;29;20237;-64
2022/02/01 11:32:20;;;;;;;5.43;3.50;;;;;;;;;;6078282;29;20228;-64
2022/02/01 11:35:41;;;;;;;4.33;3.93;;;;;;;;;;6085981;29;20973;-63
2022/02/01 11:39:09;;;;;;;8.30;4.83;;;;;;;;;;6091141;29;20236;-63
2022/02/01 11:42:34;;;;;;;6.33;5.50;;;;;;;;;;6084967;29;21300;-64
2022/02/01 11:45:55;;;;;;;8.00;4.73;;;;;;;;;;6081097;29;20244;-64
2022/02/01 11:49:22;;;;;;;4.80;4.30;;;;;;;;;;6083242;29;20228;-64
2022/02/01 11:52:43;;;;;;;5.87;4.77;;;;;;;;;;6086973;29;20568;-63
2022/02/01 11:56:06;;;;;;;5.20;4.70;;;;;;;;;;6073784;29;20804;-65
2022/02/01 11:59:29;;;;;;;7.33;6.60;;;;;;;;;;6069939;29;20236;-64
2022/02/01 12:02:51;;;;;;;12.13;7.43;;;;;;;;;;6069175;29;20240;-65
2022/02/01 12:06:19;;;;;;;6.57;5.97;;;;;;;;;;6068440;28;20236;-64
2022/02/01 12:09:40;;;;;;;5.83;5.33;;;;;;;;;;6068070;29;20244;-64
2022/02/01 12:13:02;;;;;;;6.20;4.80;;;;;;;;;;6066952;29;20236;-64
2022/02/01 12:16:23;;;;;;;9.27;7.30;;;;;;;;;;6068540;28;20245;-64
2022/02/01 12:19:48;;;;;;;8.03;7.20;;;;;;;;;;6072736;28;20236;-62
2022/02/01 12:23:25;;;;;;;8.40;7.70;;;;;;;;;;6070394;28;20310;-63
2022/02/01 12:26:48;;;;;;;7.83;6.87;;;;;;;;;;6069884;29;20251;-63
2022/02/01 12:30:11;;;;;;;9.50;8.23;;;;;;;;;;6073176;28;20232;-61
2022/02/01 12:33:31;;;;;;;7.67;6.43;;;;;;;;;;6069967;29;20229;-63
2022/02/01 12:36:54;;;;;;;8.27;7.67;;;;;;;;;;6070846;29;20267;-66
2022/02/01 12:40:14;;;;;;;7.03;6.43;;;;;;;;;;6066044;28;20237;-66
2022/02/01 12:43:53;;;;;;;6.93;6.37;;;;;;;;;;6067976;28;20236;-66
2022/02/01 12:47:20;;;;;;;6.10;5.50;;;;;;;;;;6083782;29;20240;-64
2022/02/01 12:50:40;;;;;;;4.97;4.53;;;;;;;;;;6069582;29;20240;-64
2022/02/01 12:54:01;;;;;;;4.90;4.40;;;;;;;;;;6064673;28;20229;-63
2022/02/01 12:57:21;;;;;;;5.60;4.67;;;;;;;;;;6077279;29;20255;-63
2022/02/01 13:00:47;;;;;;;4.40;4.07;;;;;;;;;;6069118;28;20256;-63
2022/02/01 13:04:19;;;;;;;4.87;3.77;;;;;;;;;;6065043;28;20619;-65
2022/02/01 13:07:54;;;;;;;3.60;3.30;;;;;;;;;;6066937;29;20252;-65
2022/02/01 13:15:04;;;;;;;4.53;2.77;;;;;;;;;;6071138;29;20615;-64
2022/02/01 13:20:03;;;;;;;4.23;2.80;;;;;;;;;;6071425;28;20327;-65
2022/02/01 13:22:11;;;;;;;3.40;2.60;;;;;;;;;;6063783;29;20239;-65
2022/02/01 13:25:33;;;;;;;4.67;3.03;;;;;;;;;;6073380;29;20232;-63
2022/02/01 13:28:57;;;;;;;8.10;3.40;;;;;;;;;;6076946;29;20241;-63
2022/02/01 13:32:18;;;;;;;6.00;4.13;;;;;;;;;;6076896;28;20240;-64
2022/02/01 13:35:46;;;;;;;6.73;3.60;;;;;;;;;;6073811;29;20264;-62
2022/02/01 13:39:08;;;;;;;5.57;3.37;;;;;;;;;;6068804;29;20348;-64
2022/02/01 13:42:29;;;;;;;4.87;4.00;;;;;;;;;;6070631;28;20301;-64
2022/02/01 13:45:51;;;;;;;7.67;4.17;;;;;;;;;;6066950;29;20232;-64
2022/02/01 13:49:12;;;;;;;5.83;3.47;;;;;;;;;;6067955;28;20587;-63
2022/02/01 13:52:32;;;;;;;5.07;3.73;;;;;;;;;;6070417;29;20263;-66
2022/02/01 13:56:02;;;;;;;9.77;3.67;;;;;;;;;;6062939;29;20268;-64
2022/02/01 13:59:26;;;;;;;16.73;3.13;;;;;;;;;;6066404;29;20240;-63
2022/02/01 14:02:50;;;;;;;8.17;3.57;;;;;;;;;;6066695;29;20281;-66
2022/02/01 14:06:22;;;;;;;12.73;4.10;;;;;;;;;;6067237;29;20369;-63
2022/02/01 14:09:58;;;;;;;10.00;3.47;;;;;;;;;;6070733;29;20275;-65
2022/02/01 14:13:44;;;;;;;12.90;4.40;;;;;;;;;;6079896;29;20396;-64
2022/02/01 14:25:33;;;;;;;14.80;6.90;;;;;;;;;;6073406;29;20260;-64
2022/02/01 14:28:46;;;;;;;16.43;5.43;;;;;;;;;;6074264;28;20236;-65
2022/02/01 14:32:18;;;;;;;18.23;4.57;;;;;;;;;;6075766;29;20867;-63
2022/02/01 14:35:38;;;;;;;21.37;5.00;;;;;;;;;;6079745;29;20232;-64
2022/02/01 14:39:11;;;;;;;16.43;4.93;;;;;;;;;;6071603;29;20228;-64
2022/02/01 14:46:11;;;;;;;27.47;6.30;;;;;;;;;;6082481;29;21764;-64
2022/02/01 14:49:32;;;;;;;22.07;7.40;;;;;;;;;;6076187;29;20323;-64
2022/02/01 14:52:53;;;;;;;15.17;5.10;;;;;;;;;;6077684;28;20624;-64
2022/02/01 14:56:19;;;;;;;15.20;5.23;;;;;;;;;;6075040;29;20236;-64
2022/02/01 15:07:04;;;;;;;10.03;4.27;;;;;;;;;;6076779;28;20247;-64
2022/02/01 15:14:03;;;;;;;21.00;6.07;;;;;;;;;;6080009;29;20246;-63
2022/02/01 15:17:23;;;;;;;20.03;5.03;;;;;;;;;;6086898;29;20241;-63
2022/02/01 15:20:45;;;;;;;13.40;4.27;;;;;;;;;;6090998;28;20694;-64
2022/02/01 15:24:06;;;;;;;17.37;5.00;;;;;;;;;;6083979;29;20233;-63
2022/02/01 15:27:26;;;;;;;15.40;5.00;;;;;;;;;;6076325;28;20236;-62
2022/02/01 15:30:47;;;;;;;9.87;3.30;;;;;;;;;;6069639;29;20282;-61
2022/02/01 15:34:08;;;;;;;13.97;4.63;;;;;;;;;;6072296;29;20248;-62
2022/02/01 15:37:33;;;;;;;8.47;3.30;;;;;;;;;;6086417;29;20228;-63
2022/02/01 15:59:09;;;;;;;11.47;4.53;;;;;;;;;;6080895;29;20228;-63
2022/02/01 16:02:34;;;;;;;13.50;4.73;;;;;;;;;;6074585;29;20359;-64
2022/02/01 16:05:56;;;;;;;19.43;6.53;;;;;;;;;;6076101;29;20259;-62
2022/02/01 16:09:22;;;;;;;24.17;8.20;;;;;;;;;;6079068;28;20594;-61
2022/02/01 16:12:48;;;;;;;26.33;5.00;;;;;;;;;;6077059;28;20233;-63
2022/02/01 16:16:10;;;;;;;16.13;5.00;;;;;;;;;;6074650;29;20240;-62
2022/02/01 16:19:30;;;;;;;20.20;6.80;;;;;;;;;;6075291;28;20236;-63
2022/02/01 16:22:51;;;;;;;18.50;6.07;;;;;;;;;;6070689;29;20228;-63
2022/02/01 16:26:12;;;;;;;25.63;6.50;;;;;;;;;;6071736;28;20264;-63
2022/02/01 16:29:34;;;;;;;24.97;7.97;;;;;;;;;;6076400;29;20608;-63
2022/02/01 16:32:54;;;;;;;18.83;5.80;;;;;;;;;;6082327;28;20244;-61
2022/02/01 16:36:19;;;;;;;21.03;5.93;;;;;;;;;;6083509;29;20240;-63
2022/02/01 16:39:40;;;;;;;16.77;5.47;;;;;;;;;;6074089;28;20327;-63
2022/02/01 16:43:06;;;;;;;23.73;8.33;;;;;;;;;;6072222;29;20249;-63
2022/02/01 16:46:32;;;;;;;21.47;6.03;;;;;;;;;;6074199;29;20232;-62
2022/02/01 16:49:53;;;;;;;17.90;5.87;;;;;;;;;;6071772;29;21568;-61
2022/02/01 16:53:16;;;;;;;22.67;6.57;;;;;;;;;;6068528;28;20255;-63
2022/02/01 16:56:43;;;;;;;16.63;4.87;;;;;;;;;;6071760;28;20289;-63
2022/02/01 17:00:07;;;;;;;16.27;4.33;;;;;;;;;;6073764;29;20327;-64
2022/02/01 17:03:29;;;;;;;17.90;4.50;;;;;;;;;;6069015;29;20232;-61
2022/02/01 17:06:50;;;;;;;15.47;4.10;;;;;;;;;;6057553;29;20263;-64
2022/02/01 17:10:10;;;;;;;15.13;4.00;;;;;;;;;;6067814;29;21327;-63
2022/02/01 17:13:48;;;;;;;17.60;4.80;;;;;;;;;;6060906;29;20236;-64
2022/02/01 17:17:21;;;;;;;18.10;6.53;;;;;;;;;;6070651;29;20228;-62
2022/02/01 17:24:22;;;;;;;28.60;6.27;;;;;;;;;;6074922;29;20240;-63
2022/02/01 17:27:43;;;;;;;31.20;8.00;;;;;;;;;;6077559;29;20718;-61
2022/02/01 17:31:03;;;;;;;31.60;8.87;;;;;;;;;;6082326;29;20232;-63
2022/02/01 17:34:24;;;;;;;26.40;7.17;;;;;;;;;;6072656;28;20260;-62
2022/02/01 17:37:46;;;;;;;24.07;6.07;;;;;;;;;;6076504;28;20241;-62
2022/02/01 17:41:07;;;;;;;24.53;8.33;;;;;;;;;;6078542;29;20229;-63
2022/02/01 17:44:28;;;;;;;23.67;7.90;;;;;;;;;;6070659;29;20678;-62
2022/02/01 17:47:50;;;;;;;29.53;9.23;;;;;;;;;;6072275;29;20251;-62
2022/02/01 17:51:14;;;;;;;28.80;8.30;;;;;;;;;;6071197;29;20240;-63
2022/02/01 17:54:36;;;;;;;32.77;9.33;;;;;;;;;;6074388;28;20232;-62
2022/02/01 17:57:56;;;;;;;24.13;8.17;;;;;;;;;;6077744;28;20241;-63
2022/02/01 18:01:17;;;;;;;29.20;8.67;;;;;;;;;;6075165;28;20324;-63
2022/02/01 18:04:37;;;;;;;35.47;9.93;;;;;;;;;;6078967;29;20228;-62
2022/02/01 18:07:58;;;;;;;30.53;9.97;;;;;;;;;;6080551;28;20762;-62
2022/02/01 18:11:23;;;;;;;37.80;8.73;;;;;;;;;;6080526;29;20634;-62
2022/02/01 18:14:59;;;;;;;34.20;10.47;;;;;;;;;;6082545;29;20256;-61
2022/02/01 18:18:22;;;;;;;35.27;11.37;;;;;;;;;;6082536;29;20261;-61
2022/02/01 18:21:45;;;;;;;47.20;13.57;;;;;;;;;;6084617;28;20268;-62
2022/02/01 18:25:06;;;;;;;36.97;12.83;;;;;;;;;;6084023;29;20241;-63
2022/02/01 18:28:29;;;;;;;32.47;11.13;;;;;;;;;;6081778;29;20237;-62
2022/02/01 18:31:50;;;;;;;39.50;11.60;;;;;;;;;;6085953;29;20233;-62
2022/02/01 18:35:10;;;;;;;38.50;10.17;;;;;;;;;;6087725;29;20233;-62
2022/02/01 18:38:32;;;;;;;44.73;12.67;;;;;;;;;;6079170;29;20324;-63
2022/02/01 18:41:53;;;;;;;37.90;13.07;;;;;;;;;;6070501;29;20237;-61
2022/02/01 18:45:16;;;;;;;34.27;10.67;;;;;;;;;;6069680;29;20772;-62
2022/02/01 18:48:37;;;;;;;26.30;10.40;;;;;;;;;;6091123;29;20228;-61
2022/02/01 18:52:09;;;;;;;30.97;9.00;;;;;;;;;;6089234;29;20327;-62
2022/02/01 18:55:44;;;;;;;24.47;9.13;;;;;;;;;;6086770;29;20323;-62
2022/02/01 18:59:09;;;;;;;31.00;9.03;;;;;;;;;;6086035;28;20244;-63
2022/02/01 19:03:01;;;;;;;23.27;9.40;;;;;;;;;;6072657;29;20228;-62
2022/02/01 19:06:37;;;;;;;39.17;9.77;;;;;;;;;;6075256;29;20883;-64
2022/02/01 19:13:38;;;;;;;26.47;6.97;;;;;;;;;;6077273;28;20236;-62
2022/02/01 19:16:58;;;;;;;26.00;7.93;;;;;;;;;;6073873;28;20248;-62
2022/02/01 19:20:21;;;;;;;18.67;6.30;;;;;;;;;;6074899;28;20232;-62
2022/02/01 19:23:42;;;;;;;18.97;6.53;;;;;;;;;;6073239;28;20248;-63
2022/02/01 19:27:02;;;;;;;15.97;6.00;;;;;;;;;;6071271;28;20244;-63
2022/02/01 19:30:24;;;;;;;22.67;6.67;;;;;;;;;;6073120;29;20224;-62
2022/02/01 19:33:48;;;;;;;18.73;7.13;;;;;;;;;;6080883;29;20549;-64
2022/02/01 19:37:12;;;;;;;15.10;5.40;;;;;;;;;;6088573;29;20319;-61
2022/02/01 19:40:33;;;;;;;21.23;7.33;;;;;;;;;;6085178;29;20232;-63
2022/02/01 19:43:57;;;;;;;17.57;6.93;;;;;;;;;;6086298;29;20241;-62
2022/02/01 19:47:29;;;;;;;19.37;6.90;;;;;;;;;;6084571;28;20222;-62
2022/02/01 19:50:49;;;;;;;17.93;8.93;;;;;;;;;;6079226;28;20225;-63
2022/02/01 19:54:12;;;;;;;29.17;6.27;;;;;;;;;;6081885;29;20236;-62
2022/02/01 19:57:33;;;;;;;25.77;7.37;;;;;;;;;;6077496;29;20233;-63
2022/02/01 20:00:54;;;;;;;27.57;7.53;;;;;;;;;;6080853;29;20232;-62
2022/02/01 20:04:15;;;;;;;30.33;7.63;;;;;;;;;;6078119;29;20236;-61
2022/02/01 20:07:37;;;;;;;27.50;8.50;;;;;;;;;;6071638;29;20220;-62
2022/02/01 20:11:02;;;;;;;29.30;8.60;;;;;;;;;;6064232;28;20232;-62
2022/02/01 20:14:22;;;;;;;17.63;5.83;;;;;;;;;;6069024;28;20232;-63
2022/02/01 20:17:44;;;;;;;27.53;7.67;;;;;;;;;;6067461;29;20236;-63
2022/02/01 20:21:05;;;;;;;22.37;5.93;;;;;;;;;;6067180;29;20259;-63
2022/02/01 20:24:25;;;;;;;26.13;8.03;;;;;;;;;;6073148;29;20239;-62
2022/02/01 20:27:47;;;;;;;23.20;8.50;;;;;;;;;;6067635;29;20240;-62
2022/02/01 20:31:08;;;;;;;28.93;7.83;;;;;;;;;;6073302;28;20274;-62
2022/02/01 20:34:28;;;;;;;22.23;5.77;;;;;;;;;;6064934;28;20236;-60
2022/02/01 20:37:50;;;;;;;20.30;5.80;;;;;;;;;;6072974;29;20224;-63
2022/02/01 20:41:11;;;;;;;26.60;7.87;;;;;;;;;;6068225;28;20232;-62
2022/02/01 20:44:33;;;;;;;20.17;9.87;;;;;;;;;;6070987;28;20638;-63
2022/02/01 20:47:54;;;;;;;19.30;6.07;;;;;;;;;;6070346;29;20232;-63
2022/02/01 20:51:15;;;;;;;25.77;8.67;;;;;;;;;;6075532;29;20256;-63
2022/02/01 20:54:37;;;;;;;21.10;6.13;;;;;;;;;;6068144;29;20236;-62
2022/02/01 20:57:57;;;;;;;24.37;7.47;;;;;;;;;;6067933;28;20224;-62
2022/02/01 21:01:19;;;;;;;30.43;7.23;;;;;;;;;;6080922;29;20229;-63
2022/02/01 21:04:39;;;;;;;28.60;8.90;;;;;;;;;;6077435;29;20931;-63
2022/02/01 21:08:00;;;;;;;23.17;7.60;;;;;;;;;;6081764;29;20235;-64
2022/02/01 21:11:20;;;;;;;21.27;6.47;;;;;;;;;;6079864;29;20233;-64
2022/02/01 21:14:41;;;;;;;25.27;5.43;;;;;;;;;;6082752;28;20225;-63
2022/02/01 21:18:03;;;;;;;22.30;7.13;;;;;;;;;;6075693;28;20228;-62
2022/02/01 21:21:23;;;;;;;23.60;8.00;;;;;;;;;;6080511;29;20260;-62
2022/02/01 21:24:44;;;;;;;25.00;6.43;;;;;;;;;;6071238;29;20228;-61
2022/02/01 21:28:05;;;;;;;20.57;7.47;;;;;;;;;;6068868;29;22064;-62
2022/02/01 21:31:26;;;;;;;24.00;7.10;;;;;;;;;;6059391;29;20251;-64
2022/02/01 21:34:49;;;;;;;23.63;7.57;;;;;;;;;;6065768;28;20683;-62
2022/02/01 21:38:09;;;;;;;23.67;7.53;;;;;;;;;;6067826;29;20324;-61
2022/02/01 21:41:30;;;;;;;26.10;6.90;;;;;;;;;;6068599;29;21092;-63